Time;durP1;ratioP1;P1;durP2;ratioP2;P2;SDS_P1;SDS_P2;PMS_P1;PMS_P2;Temp;Humidity;BMP_temperature;BMP_pressure;BME280_temperature;BME280_humidity;BME280_pressure;Samples;Min_cycle;Max_cycle;Signal;HPM_P1;HPM_P2
2021/10/05 05:02:10;;;;;;;13.05;7.43;;;;;;;7.07;96.27;95510.38;5352961;23;20094;-76
2021/10/05 05:04:36;;;;;;;6.97;6.28;;;;;;;7.33;94.99;95498.56;4912178;29;20122;-76
2021/10/05 05:07:01;;;;;;;9.80;6.93;;;;;;;7.79;94.01;95508.94;4934599;29;20050;-76
2021/10/05 05:09:27;;;;;;;11.48;6.80;;;;;;;8.18;91.89;95488.16;4933022;29;20028;-76
2021/10/05 05:11:52;;;;;;;12.48;7.22;;;;;;;9.08;88.12;95506.25;4902304;28;20031;-76
2021/10/05 05:14:19;;;;;;;19.38;7.07;;;;;;;9.70;85.26;95500.09;4934106;29;20548;-76
2021/10/05 05:16:44;;;;;;;8.65;6.75;;;;;;;9.68;82.84;95489.94;4917280;29;20420;-76
2021/10/05 05:19:10;;;;;;;7.70;5.90;;;;;;;11.01;78.59;95499.56;4918105;29;20058;-76
2021/10/05 05:21:35;;;;;;;7.82;6.75;;;;;;;11.63;76.33;95490.34;4932699;29;20078;-77
2021/10/05 05:24:01;;;;;;;9.68;6.40;;;;;;;12.25;73.49;95490.59;4902479;29;20023;-76
2021/10/05 05:26:26;;;;;;;7.10;5.45;;;;;;;12.37;73.29;95496.22;4932799;29;20473;-75
2021/10/05 05:28:52;;;;;;;6.43;5.80;;;;;;;13.11;70.76;95493.91;4918172;29;20027;-74
2021/10/05 05:31:18;;;;;;;6.15;5.55;;;;;;;14.10;68.89;95474.69;4932883;29;20086;-74
2021/10/05 05:33:43;;;;;;;6.68;5.95;;;;;;;17.25;57.99;95475.50;4917032;29;20050;-76
2021/10/05 05:36:09;;;;;;;6.28;5.68;;;;;;;18.34;54.39;95489.03;4917996;29;20046;-77
2021/10/05 05:38:34;;;;;;;7.95;5.38;;;;;;;18.38;54.34;95493.66;4916546;29;20055;-77
2021/10/05 05:41:00;;;;;;;5.93;4.20;;;;;;;18.93;53.45;95486.25;4902293;29;20477;-77
2021/10/05 05:43:25;;;;;;;5.78;4.63;;;;;;;18.84;53.77;95490.13;4916450;29;20191;-76
2021/10/05 05:45:51;;;;;;;4.55;4.15;;;;;;;19.44;52.05;95487.00;4933880;29;20133;-76
2021/10/05 05:48:17;;;;;;;5.38;4.60;;;;;;;19.87;50.97;95487.06;4931981;29;20042;-77
2021/10/05 05:50:42;;;;;;;4.70;4.30;;;;;;;20.42;49.21;95488.03;4933939;29;20034;-76
2021/10/05 05:53:08;;;;;;;5.60;4.95;;;;;;;20.17;49.84;95491.69;4932734;29;20051;-77
2021/10/05 05:55:34;;;;;;;5.30;3.85;;;;;;;20.46;48.03;95489.19;4917043;29;20027;-76
2021/10/05 05:58:07;;;;;;;4.90;3.58;;;;;;;20.89;47.68;95491.78;4901901;28;20045;-76
2021/10/05 06:00:32;;;;;;;4.60;2.95;;;;;;;21.01;47.30;95494.44;4932791;29;20070;-76
2021/10/05 06:02:58;;;;;;;4.05;3.08;;;;;;;20.80;47.55;95492.28;4932541;29;20126;-76
2021/10/05 06:05:24;;;;;;;3.22;2.90;;;;;;;21.41;46.03;95497.41;4931099;28;20413;-74
2021/10/05 06:07:49;;;;;;;321.38;16.73;;;;;;;19.38;49.86;95506.22;4933722;29;20539;-77
2021/10/05 06:10:14;;;;;;;78.05;7.80;;;;;;;18.62;51.70;95509.78;4949576;29;20034;-75
2021/10/05 06:12:41;;;;;;;3.65;3.35;;;;;;;22.03;45.14;95498.72;4949922;28;20480;-76
2021/10/05 06:15:09;;;;;;;4.80;3.22;;;;;;;21.92;45.24;95495.03;4933134;29;20035;-74
2021/10/05 06:17:39;;;;;;;3.15;2.83;;;;;;;23.09;43.50;95498.41;4932313;28;20032;-74
2021/10/05 06:20:09;;;;;;;3.60;3.08;;;;;;;22.24;44.75;95510.56;4918662;29;20465;-74
2021/10/05 06:22:35;;;;;;;5.38;3.10;;;;;;;24.26;40.00;95496.81;4932257;29;20504;-74
2021/10/05 06:25:02;;;;;;;57.08;5.78;;;;;;;22.96;40.93;95509.22;4917443;29;20023;-74
2021/10/05 06:27:29;;;;;;;5.43;4.00;;;;;;;22.91;43.42;95501.22;4916876;29;20062;-76
2021/10/05 06:29:56;;;;;;;3.53;3.22;;;;;;;24.53;40.21;95492.41;4932472;29;20059;-74
2021/10/05 06:32:22;;;;;;;22.33;4.07;;;;;;;23.39;41.52;95504.28;4917641;29;20185;-73
2021/10/05 06:34:47;;;;;;;113.32;8.10;;;;;;;22.67;42.09;95507.59;4949125;28;20350;-74
2021/10/05 06:37:13;;;;;;;3.40;3.05;;;;;;;23.06;42.11;95501.50;4932723;29;20074;-74
2021/10/05 06:39:38;;;;;;;325.73;17.08;;;;;;;22.88;41.80;95504.31;4915565;29;20178;-74
2021/10/05 06:42:04;;;;;;;135.57;10.70;;;;;;;21.34;44.51;95502.78;4933211;29;20433;-77
2021/10/05 06:44:29;;;;;;;2.53;2.38;;;;;;;25.62;37.12;95495.09;4914939;29;20063;-74
2021/10/05 06:46:55;;;;;;;32.78;4.00;;;;;;;24.68;38.26;95499.78;4917056;29;20051;-76
2021/10/05 06:49:20;;;;;;;59.83;4.57;;;;;;;23.87;38.90;95501.19;4931781;28;20469;-76
2021/10/05 06:51:46;;;;;;;5.07;3.38;;;;;;;23.04;41.86;95511.53;4931518;29;20498;-77
2021/10/05 06:54:11;;;;;;;135.52;8.27;;;;;;;23.13;41.36;95499.53;4932581;29;20027;-74
2021/10/05 06:56:36;;;;;;;5.00;2.63;;;;;;;24.86;38.57;95502.16;4947643;29;20098;-75
2021/10/05 06:59:02;;;;;;;3.33;2.60;;;;;;;27.24;34.85;95489.03;4917082;28;20031;-77
2021/10/05 07:01:28;;;;;;;2.90;2.38;;;;;;;26.86;34.38;95495.53;4915092;29;20050;-75
2021/10/05 07:03:54;;;;;;;5.72;3.35;;;;;;;23.36;40.59;95496.81;4949998;28;20051;-75
2021/10/05 07:06:19;;;;;;;760.25;37.05;;;;;;;23.39;39.90;95499.00;4915416;29;20043;-75
2021/10/05 07:08:45;;;;;;;6.40;2.38;;;;;;;27.61;34.62;95484.34;4932418;29;20483;-77
2021/10/05 07:11:10;;;;;;;6.57;2.85;;;;;;;28.02;33.22;95481.72;4916484;29;20032;-74
2021/10/05 07:13:35;;;;;;;67.68;5.18;;;;;;;25.93;36.33;95480.25;4915078;29;20042;-75
2021/10/05 07:16:01;;;;;;;3.00;2.65;;;;;;;26.57;36.35;95473.81;4901278;29;20031;-76
2021/10/05 07:18:31;;;;;;;3.28;2.60;;;;;;;26.54;35.55;95469.00;4915043;29;20118;-74
2021/10/05 07:20:57;;;;;;;4.75;2.65;;;;;;;26.89;35.75;95467.59;4918383;28;20436;-76
2021/10/05 07:23:22;;;;;;;3.65;3.00;;;;;;;25.69;37.88;95461.97;4899266;29;20031;-76
2021/10/05 07:25:48;;;;;;;6.03;2.60;;;;;;;21.27;46.06;95459.88;4916966;29;20035;-76
2021/10/05 07:28:13;;;;;;;4.30;2.60;;;;;;;20.62;48.76;95468.56;4916108;29;20019;-76
2021/10/05 07:30:38;;;;;;;4.63;2.70;;;;;;;20.69;48.61;95469.31;4916180;29;20030;-74
2021/10/05 07:33:06;;;;;;;2.50;2.30;;;;;;;19.85;52.17;95473.34;4949746;29;20031;-77
2021/10/05 07:35:31;;;;;;;4.93;2.80;;;;;;;19.89;50.70;95444.81;4915423;29;20032;-77
2021/10/05 07:37:57;;;;;;;4.30;2.70;;;;;;;19.48;51.78;95455.84;4916765;29;20496;-77
2021/10/05 07:40:23;;;;;;;6.85;3.28;;;;;;;19.91;51.14;95458.53;4914862;29;20031;-78
2021/10/05 07:42:49;;;;;;;4.93;3.20;;;;;;;19.02;53.26;95456.09;4932768;29;20481;-76
2021/10/05 07:45:14;;;;;;;5.88;3.10;;;;;;;20.59;50.06;95453.22;4915493;29;20171;-76
2021/10/05 07:47:40;;;;;;;7.03;3.28;;;;;;;19.88;51.20;95448.44;4915999;29;20039;-76
2021/10/05 07:50:05;;;;;;;3.22;2.92;;;;;;;20.16;49.13;95455.91;4932225;29;20106;-76
2021/10/05 07:52:31;;;;;;;5.65;4.00;;;;;;;18.44;54.56;95452.69;4948077;28;20031;-76
2021/10/05 07:54:56;;;;;;;3.22;2.92;;;;;;;19.69;51.87;95444.16;4916286;29;20457;-76
2021/10/05 07:57:22;;;;;;;4.95;3.15;;;;;;;20.11;52.31;95450.47;4914686;28;20034;-76
2021/10/05 07:59:50;;;;;;;4.10;2.90;;;;;;;21.08;48.21;95441.69;4900485;28;20027;-76
2021/10/05 08:02:15;;;;;;;3.95;3.25;;;;;;;19.35;51.44;95451.47;4932763;29;20463;-77
2021/10/05 08:04:41;;;;;;;316.92;17.45;;;;;;;18.84;52.57;95453.38;4919473;29;20035;-76
2021/10/05 08:07:06;;;;;;;3.38;2.75;;;;;;;18.94;52.83;95435.34;4934897;29;20497;-76
2021/10/05 08:09:31;;;;;;;417.55;20.95;;;;;;;19.53;50.34;95447.31;4918782;29;20432;-75
2021/10/05 08:11:57;;;;;;;5.90;3.33;;;;;;;19.45;50.94;95441.31;4951736;29;20050;-76
2021/10/05 08:14:22;;;;;;;7.82;3.13;;;;;;;20.27;49.79;95440.22;4933946;29;20082;-76
2021/10/05 08:16:48;;;;;;;116.85;7.15;;;;;;;19.13;50.51;95450.19;4952645;28;20031;-77
2021/10/05 08:19:14;;;;;;;5.68;3.00;;;;;;;20.16;48.89;95433.03;4949979;28;20031;-75
2021/10/05 08:21:39;;;;;;;4.72;2.70;;;;;;;20.28;48.68;95441.03;4919381;29;20035;-75
2021/10/05 08:24:05;;;;;;;3.58;2.78;;;;;;;19.32;51.92;95445.81;4933728;29;20041;-76
2021/10/05 08:26:30;;;;;;;1315.18;57.78;;;;;;;18.98;51.40;95449.66;4918913;29;20154;-76
2021/10/05 08:28:56;;;;;;;630.78;30.15;;;;;;;18.90;52.24;95444.66;4934772;29;20054;-73
2021/10/05 08:31:21;;;;;;;753.10;37.63;;;;;;;18.85;51.04;95450.53;4951363;29;20031;-75
2021/10/05 08:33:47;;;;;;;1999.90;99.38;;;;;;;18.72;50.89;95445.34;4951047;28;20050;-76
2021/10/05 08:36:12;;;;;;;61.25;4.70;;;;;;;19.25;50.70;95438.00;4949724;29;20105;-75
2021/10/05 08:38:40;;;;;;;1228.43;55.60;;;;;;;19.28;51.11;95439.38;4918913;29;20028;-76
2021/10/05 08:41:05;;;;;;;4.15;2.85;;;;;;;20.40;49.06;95450.59;4933858;29;20536;-76
2021/10/05 08:43:31;;;;;;;1277.20;64.15;;;;;;;20.05;50.30;95441.63;4918838;29;20159;-76
2021/10/05 08:45:57;;;;;;;3.28;2.60;;;;;;;20.34;49.91;95445.41;4934283;29;20032;-76
2021/10/05 08:48:31;;;;;;;56.85;5.53;;;;;;;19.90;48.93;95447.22;4933773;29;20098;-75
2021/10/05 08:50:56;;;;;;;294.73;13.73;;;;;;;20.52;48.39;95442.00;4918962;29;20028;-75
2021/10/05 08:53:21;;;;;;;3.58;2.85;;;;;;;21.22;46.68;95443.94;4933194;29;20031;-76
2021/10/05 08:55:47;;;;;;;4.28;2.75;;;;;;;22.33;45.76;95446.63;4918926;29;20034;-76
2021/10/05 08:58:12;;;;;;;32.70;4.75;;;;;;;22.25;44.67;95441.69;4932844;29;20034;-76
2021/10/05 09:00:38;;;;;;;5.30;2.83;;;;;;;22.96;43.31;95443.16;4934529;28;20024;-76
2021/10/05 09:03:03;;;;;;;3.08;2.63;;;;;;;22.43;44.44;95443.41;4914422;29;20143;-76
2021/10/05 09:05:29;;;;;;;6.15;2.85;;;;;;;22.12;43.46;95443.78;4931121;29;20160;-76
2021/10/05 09:07:57;;;;;;;270.17;13.98;;;;;;;21.79;45.04;95433.75;4930469;29;20035;-73
2021/10/05 09:10:26;;;;;;;3.38;3.10;;;;;;;23.44;42.41;95427.69;4930125;29;20043;-76
2021/10/05 09:12:51;;;;;;;;;;;;;;;20.87;46.98;95435.06;4900296;29;20070;-76
2021/10/05 09:15:18;;;;;;;3.87;2.67;;;;;;;21.82;45.37;95430.66;4929468;29;19997;-76
2021/10/05 09:17:49;;;;;;;5.60;2.78;;;;;;;21.92;45.21;95417.72;4915099;29;20972;-76
2021/10/05 09:20:31;;;;;;;3.28;2.95;;;;;;;23.08;42.86;95425.44;4914044;29;20036;-76
2021/10/05 09:23:13;;;;;;;4.57;2.92;;;;;;;21.94;44.36;95423.56;4914537;29;20019;-76
2021/10/05 09:25:41;;;;;;;586.38;30.30;;;;;;;20.60;47.32;95415.34;4915791;29;20551;-77
2021/10/05 09:28:33;;;;;;;35.90;4.13;;;;;;;20.87;46.73;95422.69;4931034;29;20482;-76
2021/10/05 09:31:05;;;;;;;3.25;2.88;;;;;;;21.64;44.95;95412.28;4927624;29;20046;-76
2021/10/05 09:33:31;;;;;;;3.67;2.60;;;;;;;21.89;45.36;95418.19;4898508;29;20071;-76
2021/10/05 09:35:57;;;;;;;4.60;2.45;;;;;;;23.34;43.23;95408.97;4914523;29;20031;-76
2021/10/05 09:38:24;;;;;;;240.48;11.77;;;;;;;21.21;45.60;95415.97;4914646;29;20032;-76
2021/10/05 09:41:09;;;;;;;3.03;2.80;;;;;;;23.13;43.11;95409.66;4913510;29;20052;-75
2021/10/05 09:43:34;;;;;;;148.05;10.35;;;;;;;23.10;42.75;95407.50;4915005;29;20077;-76
2021/10/05 09:46:14;;;;;;;4.20;2.35;;;;;;;22.02;44.65;95400.31;4913311;29;20031;-76
2021/10/05 09:48:40;;;;;;;3.97;2.67;;;;;;;21.97;45.46;95404.63;4899057;29;20480;-75
2021/10/05 09:51:19;;;;;;;3.38;2.80;;;;;;;21.75;45.03;95400.94;4930075;29;20102;-75
2021/10/05 09:53:44;;;;;;;1685.07;86.07;;;;;;;20.87;47.30;95408.75;4929187;29;20114;-76
2021/10/05 09:56:12;;;;;;;1035.47;50.53;;;;;;;21.19;46.99;95407.47;4914574;29;20106;-76
2021/10/05 09:58:38;;;;;;;21.65;3.38;;;;;;;22.55;43.37;95407.19;4928573;29;20079;-76
2021/10/05 10:01:04;;;;;;;4.55;2.80;;;;;;;22.48;44.23;95407.34;4917194;29;20422;-76
2021/10/05 10:03:29;;;;;;;15.48;3.25;;;;;;;22.22;45.05;95402.56;4949234;28;20042;-76
2021/10/05 10:05:55;;;;;;;3.63;2.22;;;;;;;23.71;41.86;95401.41;4917084;29;20038;-76
2021/10/05 10:08:21;;;;;;;1585.32;75.38;;;;;;;22.82;43.90;95402.22;4932820;29;20027;-76
2021/10/05 10:10:46;;;;;;;39.47;4.20;;;;;;;22.14;44.83;95402.09;4949647;28;20027;-76
2021/10/05 10:13:12;;;;;;;883.85;53.47;;;;;;;21.76;45.18;95397.28;4933441;29;20027;-75
2021/10/05 10:15:39;;;;;;;605.60;31.45;;;;;;;21.87;44.20;95389.34;4931779;28;20058;-76
2021/10/05 10:18:11;;;;;;;863.28;39.05;;;;;;;20.82;47.16;95398.06;4933039;29;20035;-76
2021/10/05 10:20:38;;;;;;;6.35;2.58;;;;;;;22.12;45.25;95397.06;4948880;28;20406;-75
2021/10/05 10:23:21;;;;;;;11.93;3.72;;;;;;;22.09;44.52;95394.88;4950340;29;20019;-76
2021/10/05 10:25:58;;;;;;;410.23;23.48;;;;;;;20.88;46.28;95387.44;4918211;29;20417;-76
2021/10/05 10:28:44;;;;;;;367.25;19.92;;;;;;;21.71;46.03;95395.31;4931379;29;20051;-76
2021/10/05 10:31:14;;;;;;;113.65;8.77;;;;;;;22.09;44.51;95386.19;4949883;29;20039;-76
2021/10/05 10:33:49;;;;;;;4.97;2.70;;;;;;;22.44;44.26;95389.56;4915531;29;20429;-76
2021/10/05 10:36:15;;;;;;;3.50;2.50;;;;;;;22.71;44.06;95385.38;4932393;29;20488;-76
2021/10/05 10:38:45;;;;;;;847.08;36.15;;;;;;;22.22;43.70;95386.72;4932810;29;20079;-76
2021/10/05 10:41:19;;;;;;;673.72;32.28;;;;;;;22.04;43.61;95382.38;4932329;29;20546;-74
2021/10/05 10:43:58;;;;;;;170.07;9.55;;;;;;;21.92;45.00;95383.44;4932851;29;20031;-76
2021/10/05 10:46:28;;;;;;;88.05;6.90;;;;;;;22.29;44.00;95376.84;4931788;29;20036;-76
2021/10/05 10:48:55;;;;;;;1682.75;80.00;;;;;;;20.65;46.66;95389.16;4917071;29;20134;-76
2021/10/05 10:51:20;;;;;;;23.25;3.67;;;;;;;21.92;44.64;95380.78;4916192;29;20023;-76
2021/10/05 10:53:46;;;;;;;63.72;5.80;;;;;;;22.03;44.13;95382.59;4916465;29;20417;-76
2021/10/05 10:56:26;;;;;;;505.88;25.60;;;;;;;21.53;45.42;95382.25;4916756;29;20042;-75
2021/10/05 10:58:51;;;;;;;1999.90;209.15;;;;;;;20.97;45.43;95390.53;4931163;28;20166;-75
2021/10/05 11:01:17;;;;;;;21.20;3.58;;;;;;;22.09;44.52;95379.03;4932344;29;20051;-76
2021/10/05 11:03:42;;;;;;;1999.90;155.27;;;;;;;21.15;45.28;95373.91;4930984;29;20406;-76
2021/10/05 11:06:15;;;;;;;1999.90;156.57;;;;;;;21.27;45.52;95380.00;4916365;29;20373;-77
2021/10/05 11:08:52;;;;;;;1670.32;108.60;;;;;;;21.16;45.96;95384.22;4947864;29;20417;-76
2021/10/05 11:11:20;;;;;;;241.30;12.10;;;;;;;21.63;45.60;95385.13;4931695;29;20039;-75
2021/10/05 11:13:46;;;;;;;533.90;24.73;;;;;;;21.10;45.84;95376.41;4916784;29;20063;-75
2021/10/05 11:16:11;;;;;;;179.73;9.50;;;;;;;21.15;45.89;95382.63;4904313;28;20069;-75
2021/10/05 11:18:37;;;;;;;369.05;19.05;;;;;;;21.32;45.41;95373.03;4914257;29;20466;-76
2021/10/05 11:21:07;;;;;;;580.20;35.65;;;;;;;21.91;44.87;95368.63;4946976;29;20031;-76
2021/10/05 11:23:41;;;;;;;809.67;37.78;;;;;;;21.45;45.10;95358.84;4948040;29;20543;-75
2021/10/05 11:26:06;;;;;;;1644.53;118.45;;;;;;;21.32;45.75;95359.84;4931765;29;20393;-76
2021/10/05 11:28:33;;;;;;;1037.97;50.00;;;;;;;21.41;46.05;95362.97;4931496;29;20034;-76
2021/10/05 11:30:59;;;;;;;1022.85;46.05;;;;;;;21.19;46.00;95365.31;4932272;29;20027;-76
2021/10/05 11:33:30;;;;;;;1302.07;79.22;;;;;;;20.97;46.40;95351.84;4946150;29;20070;-76
2021/10/05 11:35:58;;;;;;;784.05;45.78;;;;;;;21.43;46.49;95363.53;4932778;28;20039;-76
2021/10/05 11:38:23;;;;;;;1209.10;57.03;;;;;;;21.00;46.29;95361.13;4933319;29;20046;-75
2021/10/05 11:40:57;;;;;;;613.13;30.25;;;;;;;21.39;45.83;95363.19;4920177;29;20551;-75
2021/10/05 11:43:51;;;;;;;647.28;33.75;;;;;;;20.91;46.67;95354.56;4935391;29;20127;-77
2021/10/05 11:46:21;;;;;;;511.25;27.90;;;;;;;21.30;46.94;95356.66;4936396;29;20036;-77
2021/10/05 11:48:53;;;;;;;192.60;10.65;;;;;;;21.49;46.88;95366.06;4935620;28;20024;-77
2021/10/05 11:51:20;;;;;;;594.50;28.92;;;;;;;21.34;46.31;95368.34;4934746;29;20031;-75
2021/10/05 11:53:46;;;;;;;1999.90;139.88;;;;;;;21.54;45.46;95352.22;4935570;29;20035;-77
2021/10/05 11:56:15;;;;;;;1973.93;95.70;;;;;;;20.45;48.15;95355.97;4934901;29;20544;-75
2021/10/05 11:58:51;;;;;;;1999.90;104.43;;;;;;;20.37;47.24;95358.94;4950921;29;20019;-76
2021/10/05 12:01:22;;;;;;;291.48;15.55;;;;;;;20.83;46.79;95354.91;4934779;29;20098;-77
2021/10/05 12:03:48;;;;;;;630.53;29.67;;;;;;;20.81;46.11;95363.00;4934519;29;20019;-79
2021/10/05 12:06:34;;;;;;;116.88;7.18;;;;;;;21.23;46.43;95363.03;4919669;29;20182;-75
2021/10/05 12:09:00;;;;;;;584.30;27.85;;;;;;;21.15;46.23;95352.84;4918171;29;20437;-75
2021/10/05 12:11:38;;;;;;;486.88;24.40;;;;;;;21.06;45.63;95346.25;4935462;29;20023;-75
2021/10/05 12:14:04;;;;;;;6.32;3.08;;;;;;;21.03;46.03;95360.66;4951163;29;20049;-75
2021/10/05 12:16:29;;;;;;;1999.90;161.55;;;;;;;20.73;46.46;95367.78;4949350;28;20508;-78
2021/10/05 12:18:56;;;;;;;1164.15;54.05;;;;;;;20.84;45.95;95373.09;4935185;28;20031;-77
2021/10/05 12:21:22;;;;;;;1663.22;78.60;;;;;;;19.92;47.93;95358.41;4904693;29;20039;-74
2021/10/05 12:23:52;;;;;;;803.85;38.10;;;;;;;20.56;46.83;95359.72;4934334;29;20050;-76
2021/10/05 12:26:18;;;;;;;1999.90;130.45;;;;;;;20.60;46.38;95354.81;4909509;29;20035;-77
2021/10/05 12:29:06;;;;;;;195.15;11.70;;;;;;;20.24;46.92;95371.41;4899895;29;20072;-77
2021/10/05 12:31:32;;;;;;;92.90;7.32;;;;;;;20.84;46.14;95357.28;4931609;29;20031;-76
2021/10/05 12:34:06;;;;;;;182.10;9.90;;;;;;;20.75;46.50;95363.09;4898552;29;20032;-76
2021/10/05 12:36:33;;;;;;;349.27;19.35;;;;;;;21.06;45.86;95365.50;4916262;29;20205;-76
2021/10/05 12:39:19;;;;;;;1759.43;81.47;;;;;;;20.52;46.51;95377.78;4882767;29;20034;-77
2021/10/05 12:41:58;;;;;;;35.55;5.07;;;;;;;20.70;46.98;95371.69;4915325;29;20044;-76
2021/10/05 12:44:23;;;;;;;609.88;31.30;;;;;;;20.71;47.30;95380.38;4899805;29;20106;-74
2021/10/05 12:46:53;;;;;;;1999.90;100.50;;;;;;;19.96;48.50;95374.56;4898335;29;20513;-75
2021/10/05 12:49:19;;;;;;;229.02;15.13;;;;;;;20.41;48.26;95368.00;4898672;29;20510;-75
2021/10/05 12:51:45;;;;;;;1999.90;130.02;;;;;;;19.95;48.15;95373.75;4898655;29;20051;-74
2021/10/05 12:54:11;;;;;;;1326.85;73.90;;;;;;;20.46;48.19;95378.66;4899376;29;20460;-75
2021/10/05 12:56:36;;;;;;;263.35;13.98;;;;;;;20.45;48.36;95363.88;4898654;29;20401;-76
2021/10/05 12:59:02;;;;;;;1836.80;88.82;;;;;;;19.68;50.08;95359.22;4899217;29;20071;-73
2021/10/05 13:01:27;;;;;;;221.10;10.68;;;;;;;20.18;49.05;95357.31;4898860;29;20048;-75
2021/10/05 13:03:53;;;;;;;1999.90;112.72;;;;;;;19.36;50.08;95344.56;4898346;29;20072;-82
2021/10/05 13:06:18;;;;;;;1768.47;87.68;;;;;;;19.62;49.87;95346.19;4899651;29;20482;-76
2021/10/05 13:08:47;;;;;;;624.45;30.85;;;;;;;19.69;49.72;95352.97;4898113;29;20035;-73
2021/10/05 13:11:12;;;;;;;637.80;29.77;;;;;;;19.52;50.37;95351.13;4915954;29;20051;-72
2021/10/05 13:13:38;;;;;;;1999.90;158.70;;;;;;;19.32;50.79;95365.19;4913752;29;20063;-72
2021/10/05 13:16:05;;;;;;;641.00;30.40;;;;;;;19.20;50.96;95356.38;4915389;29;20027;-72
2021/10/05 13:18:30;;;;;;;1872.22;98.20;;;;;;;19.06;50.78;95356.69;4914696;29;20036;-75
2021/10/05 13:20:55;;;;;;;124.68;7.13;;;;;;;19.69;49.79;95357.41;4931529;29;20556;-72
2021/10/05 13:23:21;;;;;;;1999.90;150.15;;;;;;;19.24;50.67;95352.31;4915338;29;20473;-72
2021/10/05 13:25:48;;;;;;;494.20;23.73;;;;;;;19.65;49.93;95354.41;4882141;29;20538;-74
2021/10/05 13:28:14;;;;;;;1364.38;62.03;;;;;;;19.15;50.57;95342.28;4899441;29;20144;-73
2021/10/05 13:30:39;;;;;;;1387.78;76.60;;;;;;;19.42;50.34;95362.91;4898249;29;20093;-71
2021/10/05 13:33:05;;;;;;;936.05;41.78;;;;;;;19.65;49.71;95358.88;4914970;29;20041;-71
2021/10/05 13:35:30;;;;;;;1861.18;98.68;;;;;;;19.06;50.43;95352.25;4931047;29;20564;-73
2021/10/05 13:37:56;;;;;;;819.95;39.53;;;;;;;19.18;50.40;95362.88;4898862;29;20042;-75
2021/10/05 13:40:21;;;;;;;959.15;52.15;;;;;;;19.25;50.76;95361.81;4898592;29;20032;-72
2021/10/05 13:42:47;;;;;;;1676.22;79.07;;;;;;;19.13;51.06;95363.53;4897718;29;20441;-74
2021/10/05 13:45:12;;;;;;;440.98;21.33;;;;;;;19.19;50.85;95357.41;4932083;29;20024;-73
2021/10/05 13:47:38;;;;;;;127.07;8.27;;;;;;;19.10;51.12;95355.25;4913224;29;20095;-73
2021/10/05 13:50:04;;;;;;;1902.97;104.63;;;;;;;19.25;50.64;95355.75;4883232;29;20038;-73
2021/10/05 13:52:30;;;;;;;1999.90;250.00;;;;;;;18.63;51.65;95351.31;4897824;29;20023;-77
2021/10/05 13:54:55;;;;;;;962.45;48.22;;;;;;;18.86;51.61;95347.13;4898703;29;20655;-72
2021/10/05 13:57:21;;;;;;;350.95;16.98;;;;;;;18.85;51.39;95355.22;4898195;29;20034;-73
2021/10/05 13:59:46;;;;;;;1651.32;77.57;;;;;;;18.76;51.49;95346.78;4897483;29;20027;-82
2021/10/05 14:02:12;;;;;;;1185.63;77.18;;;;;;;18.98;51.42;95354.31;4883174;29;20099;-71
2021/10/05 14:04:37;;;;;;;205.70;13.63;;;;;;;18.93;51.43;95361.03;4913039;29;20107;-72
2021/10/05 14:07:03;;;;;;;280.10;14.52;;;;;;;19.08;51.18;95344.16;4914303;29;20123;-73
2021/10/05 14:09:29;;;;;;;1999.90;240.98;;;;;;;18.38;52.13;95365.13;4881356;29;20019;-78
2021/10/05 14:11:54;;;;;;;1963.63;112.32;;;;;;;18.61;52.01;95359.41;4914520;29;20019;-73
2021/10/05 14:14:21;;;;;;;640.13;33.65;;;;;;;18.73;51.61;95359.53;4897368;29;20035;-75
2021/10/05 14:16:47;;;;;;;81.47;6.40;;;;;;;18.68;51.68;95359.38;4898429;29;20499;-75
2021/10/05 14:19:12;;;;;;;1360.85;63.80;;;;;;;18.55;52.23;95370.75;4913981;29;20032;-72
2021/10/05 14:21:38;;;;;;;278.17;15.00;;;;;;;18.40;52.44;95370.97;4930358;29;20028;-74
2021/10/05 14:24:03;;;;;;;167.57;10.98;;;;;;;18.41;52.52;95372.59;4898133;29;20024;-74
2021/10/05 14:26:29;;;;;;;1986.07;101.72;;;;;;;18.18;52.35;95350.47;4896589;29;20024;-85
2021/10/05 14:28:55;;;;;;;1999.90;109.03;;;;;;;18.07;52.92;95359.00;4898529;29;20108;-77
2021/10/05 14:31:20;;;;;;;100.88;8.70;;;;;;;18.19;53.18;95370.44;4897218;29;20450;-75
2021/10/05 14:33:47;;;;;;;256.00;14.23;;;;;;;18.42;52.77;95366.31;4913899;29;20110;-72
2021/10/05 14:36:12;;;;;;;1999.90;123.80;;;;;;;17.99;52.97;95352.16;4897644;29;20043;-79
2021/10/05 14:38:38;;;;;;;1999.90;121.38;;;;;;;17.90;53.18;95362.06;4882099;29;20140;-75
2021/10/05 14:41:03;;;;;;;1999.90;247.50;;;;;;;17.81;53.15;95373.78;4898399;29;20584;-80
2021/10/05 14:43:29;;;;;;;799.25;40.92;;;;;;;18.04;53.24;95373.34;4880924;29;20441;-72
2021/10/05 14:45:54;;;;;;;24.75;3.63;;;;;;;18.15;53.10;95377.91;4898081;29;20063;-72
2021/10/05 14:48:20;;;;;;;1999.90;116.20;;;;;;;17.67;53.73;95372.19;4896723;29;20509;-73
2021/10/05 14:50:45;;;;;;;1999.90;124.60;;;;;;;17.65;53.67;95368.16;4914002;29;20039;-74
2021/10/05 14:53:11;;;;;;;774.75;35.50;;;;;;;17.74;53.88;95378.22;4912153;29;20105;-75
2021/10/05 14:55:36;;;;;;;870.50;41.85;;;;;;;17.65;53.94;95360.31;4913465;29;20596;-74
2021/10/05 14:58:02;;;;;;;412.40;21.90;;;;;;;17.59;54.27;95364.56;4897139;29;20028;-75
2021/10/05 15:00:28;;;;;;;1552.18;75.47;;;;;;;17.45;54.63;95367.34;4881353;29;20020;-74
2021/10/05 15:02:53;;;;;;;345.95;16.55;;;;;;;17.36;54.79;95362.31;4930529;29;20425;-74
2021/10/05 15:05:19;;;;;;;719.38;40.92;;;;;;;17.32;54.58;95360.28;4896218;29;20043;-73
2021/10/05 15:07:44;;;;;;;1999.90;195.52;;;;;;;17.10;55.17;95349.22;4913823;29;20024;-74
2021/10/05 15:10:13;;;;;;;1654.75;76.22;;;;;;;17.16;55.12;95358.06;4896230;29;20078;-75
2021/10/05 15:12:39;;;;;;;216.77;12.05;;;;;;;17.11;55.48;95365.75;4901299;29;20569;-74
2021/10/05 15:15:05;;;;;;;1398.60;75.47;;;;;;;17.02;55.54;95357.25;4900428;29;20023;-76
2021/10/05 15:17:31;;;;;;;1999.90;121.90;;;;;;;16.95;55.90;95361.69;4885597;29;20051;-74
2021/10/05 15:19:57;;;;;;;441.85;21.45;;;;;;;16.95;56.22;95374.78;4917308;29;20031;-72
2021/10/05 15:22:22;;;;;;;387.55;23.92;;;;;;;16.87;56.20;95369.72;4916048;29;20036;-73
2021/10/05 15:24:48;;;;;;;1569.57;70.32;;;;;;;16.74;56.66;95377.53;4900967;29;20405;-74
2021/10/05 15:27:13;;;;;;;698.80;36.45;;;;;;;16.69;56.61;95372.94;4900065;29;20023;-74
2021/10/05 15:29:39;;;;;;;1999.90;270.15;;;;;;;16.57;56.95;95379.72;4917435;29;20027;-74
2021/10/05 15:32:04;;;;;;;1999.90;134.77;;;;;;;16.50;57.10;95384.09;4884384;29;20054;-75
2021/10/05 15:34:30;;;;;;;1999.90;182.35;;;;;;;16.45;57.11;95381.25;4885210;29;20057;-75
2021/10/05 15:36:55;;;;;;;911.17;46.72;;;;;;;16.30;57.81;95378.81;4900746;29;20039;-75
2021/10/05 15:39:21;;;;;;;1992.25;102.55;;;;;;;16.24;57.85;95376.97;4883868;29;20533;-85
2021/10/05 15:41:46;;;;;;;287.98;17.30;;;;;;;16.20;57.80;95380.97;4900321;29;20083;-76
2021/10/05 15:44:12;;;;;;;1649.35;77.95;;;;;;;16.08;57.81;95385.13;4899505;29;20090;-74
2021/10/05 15:46:38;;;;;;;1756.97;89.22;;;;;;;16.04;58.22;95378.69;4901358;29;20102;-77
2021/10/05 15:49:04;;;;;;;1999.90;192.85;;;;;;;16.01;58.23;95373.84;4899502;29;20042;-75
2021/10/05 15:53:55;;;;;;;1092.53;54.35;;;;;;;15.87;58.70;95387.81;4900249;29;20457;-76
2021/10/05 15:56:20;;;;;;;1930.28;115.07;;;;;;;15.81;58.81;95383.38;4884492;29;20042;-75
2021/10/05 15:58:46;;;;;;;824.53;44.55;;;;;;;15.74;59.06;95382.50;4932238;29;20482;-81
2021/10/05 16:01:11;;;;;;;7.00;3.50;;;;;;;15.63;59.40;95370.00;4915654;29;20064;-76
2021/10/05 16:03:36;;;;;;;1181.38;58.30;;;;;;;15.57;59.64;95381.22;4901131;29;20473;-75
2021/10/05 16:06:02;;;;;;;819.85;41.72;;;;;;;15.54;59.89;95397.25;4883724;29;20059;-75
2021/10/05 16:08:31;;;;;;;1213.70;61.90;;;;;;;15.61;59.54;95393.69;4933186;29;20033;-75
2021/10/05 16:10:57;;;;;;;1216.28;62.13;;;;;;;15.40;60.06;95385.88;4916010;29;20047;-78
2021/10/05 16:13:22;;;;;;;1999.90;166.88;;;;;;;15.32;59.84;95355.50;4884819;29;20035;-79
2021/10/05 16:15:47;;;;;;;1999.90;107.20;;;;;;;15.39;60.28;95393.88;4901008;29;20055;-75
2021/10/05 16:18:13;;;;;;;979.67;48.45;;;;;;;15.24;60.90;95404.41;4899356;29;20027;-75
2021/10/05 16:20:39;;;;;;;1313.28;76.65;;;;;;;15.22;61.00;95415.03;4900714;29;20035;-75